sensor_id;sensor_type;location;lat;lon;timestamp;P1;durP1;ratioP1;P2;durP2;ratioP2
51814;SDS011;37874;53.158;6.766;2023-10-31T00:01:04;3.58;;;0.98;;
51814;SDS011;37874;53.158;6.766;2023-10-31T00:03:30;1.83;;;0.80;;
51814;SDS011;37874;53.158;6.766;2023-10-31T00:05:56;2.20;;;1.00;;
51814;SDS011;37874;53.158;6.766;2023-10-31T00:08:22;3.42;;;1.10;;
51814;SDS011;37874;53.158;6.766;2023-10-31T00:10:49;2.45;;;0.90;;
51814;SDS011;37874;53.158;6.766;2023-10-31T00:13:15;1.98;;;1.10;;
51814;SDS011;37874;53.158;6.766;2023-10-31T00:15:41;2.53;;;1.08;;
51814;SDS011;37874;53.158;6.766;2023-10-31T00:18:06;1.85;;;0.80;;
51814;SDS011;37874;53.158;6.766;2023-10-31T00:20:32;1.98;;;1.00;;
51814;SDS011;37874;53.158;6.766;2023-10-31T00:22:58;2.03;;;0.80;;
51814;SDS011;37874;53.158;6.766;2023-10-31T00:25:23;2.35;;;1.00;;
51814;SDS011;37874;53.158;6.766;2023-10-31T00:27:49;2.25;;;0.70;;
51814;SDS011;37874;53.158;6.766;2023-10-31T00:30:15;2.38;;;0.90;;
51814;SDS011;37874;53.158;6.766;2023-10-31T00:32:41;1.98;;;0.90;;
51814;SDS011;37874;53.158;6.766;2023-10-31T00:35:06;1.95;;;0.75;;
51814;SDS011;37874;53.158;6.766;2023-10-31T00:37:32;2.25;;;0.80;;
51814;SDS011;37874;53.158;6.766;2023-10-31T00:39:58;2.13;;;0.90;;
51814;SDS011;37874;53.158;6.766;2023-10-31T00:42:24;2.55;;;0.90;;
51814;SDS011;37874;53.158;6.766;2023-10-31T00:44:50;1.92;;;0.73;;
51814;SDS011;37874;53.158;6.766;2023-10-31T00:47:15;1.88;;;0.70;;
51814;SDS011;37874;53.158;6.766;2023-10-31T00:49:41;2.50;;;0.85;;
51814;SDS011;37874;53.158;6.766;2023-10-31T00:52:06;1.25;;;0.60;;
51814;SDS011;37874;53.158;6.766;2023-10-31T00:54:32;3.60;;;0.88;;
51814;SDS011;37874;53.158;6.766;2023-10-31T00:56:57;1.70;;;0.80;;
51814;SDS011;37874;53.158;6.766;2023-10-31T00:59:23;2.20;;;0.75;;
51814;SDS011;37874;53.158;6.766;2023-10-31T01:01:49;1.45;;;0.70;;
51814;SDS011;37874;53.158;6.766;2023-10-31T01:04:14;1.70;;;0.68;;
51814;SDS011;37874;53.158;6.766;2023-10-31T01:06:43;1.55;;;0.60;;
51814;SDS011;37874;53.158;6.766;2023-10-31T01:09:09;1.83;;;0.70;;
51814;SDS011;37874;53.158;6.766;2023-10-31T01:11:35;1.67;;;0.80;;
51814;SDS011;37874;53.158;6.766;2023-10-31T01:14:01;1.25;;;0.55;;
51814;SDS011;37874;53.158;6.766;2023-10-31T01:16:28;1.90;;;0.70;;
51814;SDS011;37874;53.158;6.766;2023-10-31T01:18:53;2.97;;;0.70;;
51814;SDS011;37874;53.158;6.766;2023-10-31T01:21:19;1.35;;;0.60;;
51814;SDS011;37874;53.158;6.766;2023-10-31T01:23:45;1.42;;;0.60;;
51814;SDS011;37874;53.158;6.766;2023-10-31T01:26:10;1.70;;;0.70;;
51814;SDS011;37874;53.158;6.766;2023-10-31T01:28:36;1.83;;;0.50;;
51814;SDS011;37874;53.158;6.766;2023-10-31T01:31:03;1.80;;;0.60;;
51814;SDS011;37874;53.158;6.766;2023-10-31T01:33:28;1.15;;;0.60;;
51814;SDS011;37874;53.158;6.766;2023-10-31T01:35:54;1.50;;;0.50;;
51814;SDS011;37874;53.158;6.766;2023-10-31T01:38:20;1.70;;;0.65;;
51814;SDS011;37874;53.158;6.766;2023-10-31T01:40:48;1.27;;;0.47;;
51814;SDS011;37874;53.158;6.766;2023-10-31T01:43:32;0.95;;;0.40;;
51814;SDS011;37874;53.158;6.766;2023-10-31T01:45:59;2.13;;;0.73;;
51814;SDS011;37874;53.158;6.766;2023-10-31T01:48:25;1.35;;;0.52;;
51814;SDS011;37874;53.158;6.766;2023-10-31T01:50:52;1.52;;;0.50;;
51814;SDS011;37874;53.158;6.766;2023-10-31T01:53:18;1.92;;;0.52;;
51814;SDS011;37874;53.158;6.766;2023-10-31T01:55:44;1.33;;;0.60;;
51814;SDS011;37874;53.158;6.766;2023-10-31T01:58:11;1.25;;;0.55;;
51814;SDS011;37874;53.158;6.766;2023-10-31T02:00:39;1.50;;;0.52;;
51814;SDS011;37874;53.158;6.766;2023-10-31T02:03:06;1.27;;;0.50;;
51814;SDS011;37874;53.158;6.766;2023-10-31T02:05:33;1.55;;;0.50;;
51814;SDS011;37874;53.158;6.766;2023-10-31T02:07:59;2.33;;;0.60;;
51814;SDS011;37874;53.158;6.766;2023-10-31T02:10:26;1.38;;;0.50;;
51814;SDS011;37874;53.158;6.766;2023-10-31T02:12:51;1.15;;;0.50;;
51814;SDS011;37874;53.158;6.766;2023-10-31T02:15:17;1.70;;;0.63;;
51814;SDS011;37874;53.158;6.766;2023-10-31T02:17:43;1.00;;;0.30;;
51814;SDS011;37874;53.158;6.766;2023-10-31T02:20:08;1.95;;;0.43;;
51814;SDS011;37874;53.158;6.766;2023-10-31T02:22:34;1.40;;;0.50;;
51814;SDS011;37874;53.158;6.766;2023-10-31T02:25:00;2.53;;;0.40;;
51814;SDS011;37874;53.158;6.766;2023-10-31T02:27:25;1.23;;;0.60;;
51814;SDS011;37874;53.158;6.766;2023-10-31T02:29:51;1.42;;;0.65;;
51814;SDS011;37874;53.158;6.766;2023-10-31T02:32:17;1.42;;;0.50;;
51814;SDS011;37874;53.158;6.766;2023-10-31T02:34:44;1.52;;;0.45;;
51814;SDS011;37874;53.158;6.766;2023-10-31T02:37:10;0.90;;;0.40;;
51814;SDS011;37874;53.158;6.766;2023-10-31T02:39:37;1.25;;;0.50;;
51814;SDS011;37874;53.158;6.766;2023-10-31T02:42:02;1.55;;;0.50;;
51814;SDS011;37874;53.158;6.766;2023-10-31T02:44:28;1.45;;;0.50;;
51814;SDS011;37874;53.158;6.766;2023-10-31T02:46:54;1.25;;;0.47;;
51814;SDS011;37874;53.158;6.766;2023-10-31T02:49:20;1.85;;;0.60;;
51814;SDS011;37874;53.158;6.766;2023-10-31T02:51:46;1.10;;;0.40;;
51814;SDS011;37874;53.158;6.766;2023-10-31T02:54:12;1.05;;;0.40;;
51814;SDS011;37874;53.158;6.766;2023-10-31T02:56:37;1.15;;;0.32;;
51814;SDS011;37874;53.158;6.766;2023-10-31T02:59:04;1.15;;;0.40;;
51814;SDS011;37874;53.158;6.766;2023-10-31T03:01:29;1.27;;;0.55;;
51814;SDS011;37874;53.158;6.766;2023-10-31T03:03:55;0.80;;;0.40;;
51814;SDS011;37874;53.158;6.766;2023-10-31T03:06:21;2.65;;;0.60;;
51814;SDS011;37874;53.158;6.766;2023-10-31T03:08:47;1.15;;;0.40;;
51814;SDS011;37874;53.158;6.766;2023-10-31T03:11:25;1.50;;;0.50;;
51814;SDS011;37874;53.158;6.766;2023-10-31T03:13:51;2.08;;;0.50;;
51814;SDS011;37874;53.158;6.766;2023-10-31T03:16:21;1.13;;;0.50;;
51814;SDS011;37874;53.158;6.766;2023-10-31T03:18:47;1.65;;;0.50;;
51814;SDS011;37874;53.158;6.766;2023-10-31T03:21:13;2.00;;;0.55;;
51814;SDS011;37874;53.158;6.766;2023-10-31T03:23:40;1.58;;;0.50;;
51814;SDS011;37874;53.158;6.766;2023-10-31T03:26:06;1.63;;;0.63;;
51814;SDS011;37874;53.158;6.766;2023-10-31T03:28:32;1.30;;;0.60;;
51814;SDS011;37874;53.158;6.766;2023-10-31T03:30:58;1.63;;;0.60;;
51814;SDS011;37874;53.158;6.766;2023-10-31T03:33:23;2.08;;;0.55;;
51814;SDS011;37874;53.158;6.766;2023-10-31T03:35:49;2.15;;;0.70;;
51814;SDS011;37874;53.158;6.766;2023-10-31T03:38:15;2.88;;;0.75;;
51814;SDS011;37874;53.158;6.766;2023-10-31T03:40:40;2.10;;;0.70;;
51814;SDS011;37874;53.158;6.766;2023-10-31T03:43:06;1.88;;;0.57;;
51814;SDS011;37874;53.158;6.766;2023-10-31T03:45:32;1.95;;;0.60;;
51814;SDS011;37874;53.158;6.766;2023-10-31T03:47:58;2.53;;;0.60;;
51814;SDS011;37874;53.158;6.766;2023-10-31T03:50:23;1.90;;;0.70;;
51814;SDS011;37874;53.158;6.766;2023-10-31T03:52:49;1.33;;;0.50;;
51814;SDS011;37874;53.158;6.766;2023-10-31T03:55:15;1.42;;;0.75;;
51814;SDS011;37874;53.158;6.766;2023-10-31T03:57:40;1.10;;;0.40;;
51814;SDS011;37874;53.158;6.766;2023-10-31T04:00:06;1.95;;;0.55;;
51814;SDS011;37874;53.158;6.766;2023-10-31T04:02:32;1.83;;;0.77;;
51814;SDS011;37874;53.158;6.766;2023-10-31T04:04:58;1.27;;;0.70;;
51814;SDS011;37874;53.158;6.766;2023-10-31T04:07:24;2.55;;;0.60;;
51814;SDS011;37874;53.158;6.766;2023-10-31T04:09:50;2.20;;;0.57;;
51814;SDS011;37874;53.158;6.766;2023-10-31T04:12:16;1.77;;;0.60;;
51814;SDS011;37874;53.158;6.766;2023-10-31T04:14:42;1.55;;;0.55;;
51814;SDS011;37874;53.158;6.766;2023-10-31T04:17:07;2.83;;;0.50;;
51814;SDS011;37874;53.158;6.766;2023-10-31T04:19:35;1.45;;;0.50;;
51814;SDS011;37874;53.158;6.766;2023-10-31T04:22:01;1.60;;;0.50;;
51814;SDS011;37874;53.158;6.766;2023-10-31T04:24:27;1.17;;;0.57;;
51814;SDS011;37874;53.158;6.766;2023-10-31T04:26:53;1.35;;;0.52;;
51814;SDS011;37874;53.158;6.766;2023-10-31T04:29:19;0.88;;;0.35;;
51814;SDS011;37874;53.158;6.766;2023-10-31T04:31:44;1.70;;;0.55;;
51814;SDS011;37874;53.158;6.766;2023-10-31T04:34:10;1.30;;;0.40;;
51814;SDS011;37874;53.158;6.766;2023-10-31T04:36:36;1.88;;;0.50;;
51814;SDS011;37874;53.158;6.766;2023-10-31T04:39:02;1.70;;;0.50;;
51814;SDS011;37874;53.158;6.766;2023-10-31T04:41:28;2.15;;;0.57;;
51814;SDS011;37874;53.158;6.766;2023-10-31T04:43:54;1.45;;;0.45;;
51814;SDS011;37874;53.158;6.766;2023-10-31T04:46:19;1.17;;;0.50;;
51814;SDS011;37874;53.158;6.766;2023-10-31T04:48:45;2.10;;;0.43;;
51814;SDS011;37874;53.158;6.766;2023-10-31T04:51:12;1.60;;;0.47;;
51814;SDS011;37874;53.158;6.766;2023-10-31T04:53:40;2.70;;;0.63;;
51814;SDS011;37874;53.158;6.766;2023-10-31T04:56:11;1.10;;;0.35;;
51814;SDS011;37874;53.158;6.766;2023-10-31T04:58:39;1.75;;;0.50;;
51814;SDS011;37874;53.158;6.766;2023-10-31T05:01:07;0.80;;;0.40;;
51814;SDS011;37874;53.158;6.766;2023-10-31T05:03:37;2.05;;;0.57;;
51814;SDS011;37874;53.158;6.766;2023-10-31T05:06:03;1.17;;;0.45;;
51814;SDS011;37874;53.158;6.766;2023-10-31T05:08:29;1.05;;;0.40;;
51814;SDS011;37874;53.158;6.766;2023-10-31T05:10:56;0.57;;;0.40;;
51814;SDS011;37874;53.158;6.766;2023-10-31T05:13:22;1.13;;;0.40;;
51814;SDS011;37874;53.158;6.766;2023-10-31T05:15:48;1.33;;;0.52;;
51814;SDS011;37874;53.158;6.766;2023-10-31T05:18:13;1.27;;;0.57;;
51814;SDS011;37874;53.158;6.766;2023-10-31T05:20:39;1.58;;;0.50;;
51814;SDS011;37874;53.158;6.766;2023-10-31T05:23:04;1.58;;;0.50;;
51814;SDS011;37874;53.158;6.766;2023-10-31T05:25:30;1.33;;;0.40;;
51814;SDS011;37874;53.158;6.766;2023-10-31T05:27:56;1.20;;;0.52;;
51814;SDS011;37874;53.158;6.766;2023-10-31T05:30:22;1.38;;;0.40;;
51814;SDS011;37874;53.158;6.766;2023-10-31T05:32:49;0.80;;;0.30;;
51814;SDS011;37874;53.158;6.766;2023-10-31T05:35:15;1.85;;;0.50;;
51814;SDS011;37874;53.158;6.766;2023-10-31T05:37:41;1.40;;;0.63;;
51814;SDS011;37874;53.158;6.766;2023-10-31T05:40:06;1.25;;;0.50;;
51814;SDS011;37874;53.158;6.766;2023-10-31T05:42:32;0.60;;;0.30;;
51814;SDS011;37874;53.158;6.766;2023-10-31T05:44:58;1.70;;;0.50;;
51814;SDS011;37874;53.158;6.766;2023-10-31T05:47:24;1.38;;;0.40;;
51814;SDS011;37874;53.158;6.766;2023-10-31T05:49:50;1.48;;;0.40;;
51814;SDS011;37874;53.158;6.766;2023-10-31T05:52:16;1.55;;;0.40;;
51814;SDS011;37874;53.158;6.766;2023-10-31T05:54:41;0.75;;;0.35;;
51814;SDS011;37874;53.158;6.766;2023-10-31T05:57:07;2.50;;;0.40;;
51814;SDS011;37874;53.158;6.766;2023-10-31T05:59:33;0.80;;;0.30;;
51814;SDS011;37874;53.158;6.766;2023-10-31T06:01:58;0.40;;;0.30;;
51814;SDS011;37874;53.158;6.766;2023-10-31T06:04:24;0.70;;;0.35;;
51814;SDS011;37874;53.158;6.766;2023-10-31T06:06:50;1.50;;;0.60;;
51814;SDS011;37874;53.158;6.766;2023-10-31T06:09:16;1.40;;;0.40;;
51814;SDS011;37874;53.158;6.766;2023-10-31T06:11:42;0.77;;;0.30;;
51814;SDS011;37874;53.158;6.766;2023-10-31T06:14:08;1.45;;;0.50;;
51814;SDS011;37874;53.158;6.766;2023-10-31T06:16:39;1.67;;;0.38;;
51814;SDS011;37874;53.158;6.766;2023-10-31T06:19:08;0.85;;;0.28;;
51814;SDS011;37874;53.158;6.766;2023-10-31T06:21:34;1.02;;;0.30;;
51814;SDS011;37874;53.158;6.766;2023-10-31T06:24:00;1.02;;;0.35;;
51814;SDS011;37874;53.158;6.766;2023-10-31T06:26:26;1.55;;;0.47;;
51814;SDS011;37874;53.158;6.766;2023-10-31T06:28:51;1.00;;;0.40;;
51814;SDS011;37874;53.158;6.766;2023-10-31T06:31:17;2.45;;;0.30;;
51814;SDS011;37874;53.158;6.766;2023-10-31T06:33:42;0.93;;;0.30;;
51814;SDS011;37874;53.158;6.766;2023-10-31T06:36:08;2.10;;;0.35;;
51814;SDS011;37874;53.158;6.766;2023-10-31T06:38:34;1.80;;;0.40;;
51814;SDS011;37874;53.158;6.766;2023-10-31T06:40:59;1.00;;;0.30;;
51814;SDS011;37874;53.158;6.766;2023-10-31T06:43:25;1.83;;;0.55;;
51814;SDS011;37874;53.158;6.766;2023-10-31T06:45:52;1.33;;;0.30;;
51814;SDS011;37874;53.158;6.766;2023-10-31T06:48:18;1.20;;;0.28;;
51814;SDS011;37874;53.158;6.766;2023-10-31T06:50:43;1.20;;;0.40;;
51814;SDS011;37874;53.158;6.766;2023-10-31T06:53:09;1.45;;;0.32;;
51814;SDS011;37874;53.158;6.766;2023-10-31T06:55:35;0.98;;;0.30;;
51814;SDS011;37874;53.158;6.766;2023-10-31T06:58:01;1.17;;;0.30;;
51814;SDS011;37874;53.158;6.766;2023-10-31T07:00:27;0.95;;;0.30;;
51814;SDS011;37874;53.158;6.766;2023-10-31T07:02:52;1.67;;;0.32;;
51814;SDS011;37874;53.158;6.766;2023-10-31T07:05:18;2.03;;;0.40;;
51814;SDS011;37874;53.158;6.766;2023-10-31T07:07:45;1.85;;;0.32;;
51814;SDS011;37874;53.158;6.766;2023-10-31T07:10:12;1.58;;;0.35;;
51814;SDS011;37874;53.158;6.766;2023-10-31T07:12:37;2.10;;;0.30;;
51814;SDS011;37874;53.158;6.766;2023-10-31T07:15:03;1.20;;;0.38;;
51814;SDS011;37874;53.158;6.766;2023-10-31T07:17:29;2.97;;;0.30;;
51814;SDS011;37874;53.158;6.766;2023-10-31T07:19:55;2.50;;;0.30;;
51814;SDS011;37874;53.158;6.766;2023-10-31T07:22:21;0.80;;;0.30;;
51814;SDS011;37874;53.158;6.766;2023-10-31T07:24:49;2.25;;;0.30;;
51814;SDS011;37874;53.158;6.766;2023-10-31T07:27:15;1.92;;;0.38;;
51814;SDS011;37874;53.158;6.766;2023-10-31T07:29:41;1.67;;;0.40;;
51814;SDS011;37874;53.158;6.766;2023-10-31T07:32:07;2.83;;;0.47;;
51814;SDS011;37874;53.158;6.766;2023-10-31T07:34:33;0.80;;;0.30;;
51814;SDS011;37874;53.158;6.766;2023-10-31T07:36:59;2.08;;;0.32;;
51814;SDS011;37874;53.158;6.766;2023-10-31T07:39:25;2.25;;;0.50;;
51814;SDS011;37874;53.158;6.766;2023-10-31T07:41:50;2.03;;;0.35;;
51814;SDS011;37874;53.158;6.766;2023-10-31T07:44:16;0.30;;;0.20;;
51814;SDS011;37874;53.158;6.766;2023-10-31T07:46:42;2.38;;;0.50;;
51814;SDS011;37874;53.158;6.766;2023-10-31T07:49:08;0.68;;;0.30;;
51814;SDS011;37874;53.158;6.766;2023-10-31T07:51:34;1.48;;;0.40;;
51814;SDS011;37874;53.158;6.766;2023-10-31T07:53:59;0.88;;;0.30;;
51814;SDS011;37874;53.158;6.766;2023-10-31T07:56:25;2.78;;;0.30;;
51814;SDS011;37874;53.158;6.766;2023-10-31T07:58:51;2.67;;;0.22;;
51814;SDS011;37874;53.158;6.766;2023-10-31T08:01:18;1.70;;;0.30;;
51814;SDS011;37874;53.158;6.766;2023-10-31T08:03:45;1.13;;;0.40;;
51814;SDS011;37874;53.158;6.766;2023-10-31T08:06:11;0.60;;;0.30;;
51814;SDS011;37874;53.158;6.766;2023-10-31T08:08:37;1.58;;;0.43;;
51814;SDS011;37874;53.158;6.766;2023-10-31T08:11:03;1.52;;;0.35;;
51814;SDS011;37874;53.158;6.766;2023-10-31T08:13:29;1.27;;;0.20;;
51814;SDS011;37874;53.158;6.766;2023-10-31T08:15:55;1.45;;;0.45;;
51814;SDS011;37874;53.158;6.766;2023-10-31T08:18:21;1.38;;;0.32;;
51814;SDS011;37874;53.158;6.766;2023-10-31T08:20:48;1.17;;;0.30;;
51814;SDS011;37874;53.158;6.766;2023-10-31T08:23:16;1.38;;;0.38;;
51814;SDS011;37874;53.158;6.766;2023-10-31T08:25:45;1.60;;;0.20;;
51814;SDS011;37874;53.158;6.766;2023-10-31T08:28:11;2.03;;;0.30;;
51814;SDS011;37874;53.158;6.766;2023-10-31T08:30:37;2.55;;;0.47;;
51814;SDS011;37874;53.158;6.766;2023-10-31T08:33:06;2.45;;;0.40;;
51814;SDS011;37874;53.158;6.766;2023-10-31T08:35:35;0.85;;;0.20;;
51814;SDS011;37874;53.158;6.766;2023-10-31T08:38:01;1.88;;;0.40;;
51814;SDS011;37874;53.158;6.766;2023-10-31T08:40:30;1.67;;;0.35;;
51814;SDS011;37874;53.158;6.766;2023-10-31T08:42:55;0.77;;;0.22;;
51814;SDS011;37874;53.158;6.766;2023-10-31T08:45:22;0.30;;;0.10;;
51814;SDS011;37874;53.158;6.766;2023-10-31T08:47:48;2.40;;;0.40;;
51814;SDS011;37874;53.158;6.766;2023-10-31T08:50:15;20.77;;;1.77;;
51814;SDS011;37874;53.158;6.766;2023-10-31T08:52:46;82.75;;;6.45;;
51814;SDS011;37874;53.158;6.766;2023-10-31T08:55:14;60.28;;;5.60;;
51814;SDS011;37874;53.158;6.766;2023-10-31T08:57:40;74.40;;;5.75;;
51814;SDS011;37874;53.158;6.766;2023-10-31T09:00:06;49.38;;;5.10;;
51814;SDS011;37874;53.158;6.766;2023-10-31T09:02:32;90.93;;;6.30;;
51814;SDS011;37874;53.158;6.766;2023-10-31T09:04:58;64.30;;;5.53;;
51814;SDS011;37874;53.158;6.766;2023-10-31T09:07:24;65.85;;;6.30;;
51814;SDS011;37874;53.158;6.766;2023-10-31T09:09:50;57.78;;;5.25;;
51814;SDS011;37874;53.158;6.766;2023-10-31T09:12:16;43.63;;;4.88;;
51814;SDS011;37874;53.158;6.766;2023-10-31T09:14:42;50.13;;;5.47;;
51814;SDS011;37874;53.158;6.766;2023-10-31T09:17:08;58.95;;;5.63;;
51814;SDS011;37874;53.158;6.766;2023-10-31T09:19:36;49.58;;;4.60;;
51814;SDS011;37874;53.158;6.766;2023-10-31T09:22:02;53.00;;;5.07;;
51814;SDS011;37874;53.158;6.766;2023-10-31T09:24:27;58.15;;;5.65;;
51814;SDS011;37874;53.158;6.766;2023-10-31T09:26:53;48.38;;;5.32;;
51814;SDS011;37874;53.158;6.766;2023-10-31T09:29:19;47.53;;;5.07;;
51814;SDS011;37874;53.158;6.766;2023-10-31T09:31:45;37.47;;;4.72;;
51814;SDS011;37874;53.158;6.766;2023-10-31T09:34:12;44.45;;;4.30;;
51814;SDS011;37874;53.158;6.766;2023-10-31T09:36:39;59.13;;;6.85;;
51814;SDS011;37874;53.158;6.766;2023-10-31T09:39:05;29.20;;;4.38;;
51814;SDS011;37874;53.158;6.766;2023-10-31T09:41:31;34.85;;;3.97;;
51814;SDS011;37874;53.158;6.766;2023-10-31T09:43:59;33.92;;;4.50;;
51814;SDS011;37874;53.158;6.766;2023-10-31T09:46:27;34.05;;;3.70;;
51814;SDS011;37874;53.158;6.766;2023-10-31T09:48:53;30.08;;;4.35;;
51814;SDS011;37874;53.158;6.766;2023-10-31T09:51:21;29.65;;;4.10;;
51814;SDS011;37874;53.158;6.766;2023-10-31T09:53:47;30.83;;;3.90;;
51814;SDS011;37874;53.158;6.766;2023-10-31T09:56:13;29.27;;;4.03;;
51814;SDS011;37874;53.158;6.766;2023-10-31T09:58:40;31.10;;;3.35;;
51814;SDS011;37874;53.158;6.766;2023-10-31T10:01:06;25.55;;;3.42;;
51814;SDS011;37874;53.158;6.766;2023-10-31T10:03:32;22.25;;;3.22;;
51814;SDS011;37874;53.158;6.766;2023-10-31T10:05:58;24.27;;;3.22;;
51814;SDS011;37874;53.158;6.766;2023-10-31T10:08:24;19.45;;;2.92;;
51814;SDS011;37874;53.158;6.766;2023-10-31T10:10:49;14.35;;;2.63;;
51814;SDS011;37874;53.158;6.766;2023-10-31T10:13:17;16.13;;;3.05;;
51814;SDS011;37874;53.158;6.766;2023-10-31T10:15:46;16.58;;;2.28;;
51814;SDS011;37874;53.158;6.766;2023-10-31T10:21:00;12.25;;;2.10;;
51814;SDS011;37874;53.158;6.766;2023-10-31T10:23:27;17.23;;;2.60;;
51814;SDS011;37874;53.158;6.766;2023-10-31T10:25:54;10.20;;;2.20;;
51814;SDS011;37874;53.158;6.766;2023-10-31T10:28:21;19.10;;;2.30;;
51814;SDS011;37874;53.158;6.766;2023-10-31T10:30:48;12.38;;;1.90;;
51814;SDS011;37874;53.158;6.766;2023-10-31T10:33:14;7.32;;;1.65;;
51814;SDS011;37874;53.158;6.766;2023-10-31T10:35:40;12.05;;;1.88;;
51814;SDS011;37874;53.158;6.766;2023-10-31T10:38:10;10.07;;;1.83;;
51814;SDS011;37874;53.158;6.766;2023-10-31T10:40:40;9.65;;;1.77;;
51814;SDS011;37874;53.158;6.766;2023-10-31T10:43:12;12.30;;;2.13;;
51814;SDS011;37874;53.158;6.766;2023-10-31T10:45:42;9.95;;;1.98;;
51814;SDS011;37874;53.158;6.766;2023-10-31T10:48:13;11.07;;;2.05;;
51814;SDS011;37874;53.158;6.766;2023-10-31T10:50:42;9.10;;;1.60;;
51814;SDS011;37874;53.158;6.766;2023-10-31T10:53:21;8.50;;;1.70;;
51814;SDS011;37874;53.158;6.766;2023-10-31T10:56:00;8.25;;;1.77;;
51814;SDS011;37874;53.158;6.766;2023-10-31T11:01:35;10.68;;;2.00;;
51814;SDS011;37874;53.158;6.766;2023-10-31T11:04:03;7.22;;;1.73;;
51814;SDS011;37874;53.158;6.766;2023-10-31T11:06:31;9.55;;;1.65;;
51814;SDS011;37874;53.158;6.766;2023-10-31T11:08:58;10.48;;;1.65;;
51814;SDS011;37874;53.158;6.766;2023-10-31T11:11:25;7.90;;;1.40;;
51814;SDS011;37874;53.158;6.766;2023-10-31T11:13:51;4.47;;;1.05;;
51814;SDS011;37874;53.158;6.766;2023-10-31T11:16:20;8.88;;;1.23;;
51814;SDS011;37874;53.158;6.766;2023-10-31T11:18:54;7.93;;;1.30;;
51814;SDS011;37874;53.158;6.766;2023-10-31T11:21:22;6.43;;;1.13;;
51814;SDS011;37874;53.158;6.766;2023-10-31T11:23:56;9.23;;;1.30;;
51814;SDS011;37874;53.158;6.766;2023-10-31T11:26:25;6.53;;;1.27;;
51814;SDS011;37874;53.158;6.766;2023-10-31T11:28:51;6.72;;;1.10;;
51814;SDS011;37874;53.158;6.766;2023-10-31T11:31:17;6.03;;;1.10;;
51814;SDS011;37874;53.158;6.766;2023-10-31T11:33:43;8.48;;;1.25;;
51814;SDS011;37874;53.158;6.766;2023-10-31T11:36:11;3.33;;;0.98;;
51814;SDS011;37874;53.158;6.766;2023-10-31T11:38:37;7.07;;;1.55;;
51814;SDS011;37874;53.158;6.766;2023-10-31T11:41:03;7.13;;;1.10;;
51814;SDS011;37874;53.158;6.766;2023-10-31T11:43:39;5.07;;;1.27;;
51814;SDS011;37874;53.158;6.766;2023-10-31T11:46:20;4.85;;;1.00;;
51814;SDS011;37874;53.158;6.766;2023-10-31T11:48:54;4.88;;;1.00;;
51814;SDS011;37874;53.158;6.766;2023-10-31T11:51:21;5.95;;;0.88;;
51814;SDS011;37874;53.158;6.766;2023-10-31T11:53:47;5.55;;;1.20;;
51814;SDS011;37874;53.158;6.766;2023-10-31T11:56:14;3.75;;;0.80;;
51814;SDS011;37874;53.158;6.766;2023-10-31T11:58:41;7.38;;;1.17;;
51814;SDS011;37874;53.158;6.766;2023-10-31T12:01:07;7.18;;;1.17;;
51814;SDS011;37874;53.158;6.766;2023-10-31T12:03:41;5.78;;;0.90;;
51814;SDS011;37874;53.158;6.766;2023-10-31T12:06:08;3.72;;;1.30;;
51814;SDS011;37874;53.158;6.766;2023-10-31T12:08:38;5.65;;;0.90;;
51814;SDS011;37874;53.158;6.766;2023-10-31T12:11:06;4.30;;;0.80;;
51814;SDS011;37874;53.158;6.766;2023-10-31T12:13:33;5.25;;;1.10;;
51814;SDS011;37874;53.158;6.766;2023-10-31T12:16:00;3.92;;;0.93;;
51814;SDS011;37874;53.158;6.766;2023-10-31T12:18:29;4.43;;;0.82;;
51814;SDS011;37874;53.158;6.766;2023-10-31T12:20:55;5.20;;;1.10;;
51814;SDS011;37874;53.158;6.766;2023-10-31T12:23:21;3.92;;;0.80;;
51814;SDS011;37874;53.158;6.766;2023-10-31T12:25:47;2.75;;;0.90;;
51814;SDS011;37874;53.158;6.766;2023-10-31T12:28:20;4.35;;;0.70;;
51814;SDS011;37874;53.158;6.766;2023-10-31T12:30:47;3.03;;;0.80;;
51814;SDS011;37874;53.158;6.766;2023-10-31T12:33:19;4.97;;;1.00;;
51814;SDS011;37874;53.158;6.766;2023-10-31T12:35:57;2.15;;;0.70;;
51814;SDS011;37874;53.158;6.766;2023-10-31T12:38:24;6.38;;;1.10;;
51814;SDS011;37874;53.158;6.766;2023-10-31T12:40:51;4.75;;;0.85;;
51814;SDS011;37874;53.158;6.766;2023-10-31T12:43:20;4.05;;;0.70;;
51814;SDS011;37874;53.158;6.766;2023-10-31T12:45:50;3.55;;;1.17;;
51814;SDS011;37874;53.158;6.766;2023-10-31T12:48:16;5.13;;;1.30;;
51814;SDS011;37874;53.158;6.766;2023-10-31T12:50:42;5.18;;;1.50;;
51814;SDS011;37874;53.158;6.766;2023-10-31T12:53:09;5.05;;;1.30;;
51814;SDS011;37874;53.158;6.766;2023-10-31T12:55:40;3.65;;;1.05;;
51814;SDS011;37874;53.158;6.766;2023-10-31T12:58:11;3.65;;;0.93;;
51814;SDS011;37874;53.158;6.766;2023-10-31T13:00:46;3.67;;;0.85;;
51814;SDS011;37874;53.158;6.766;2023-10-31T13:03:11;2.10;;;0.60;;
51814;SDS011;37874;53.158;6.766;2023-10-31T13:05:38;3.42;;;0.80;;
51814;SDS011;37874;53.158;6.766;2023-10-31T13:08:08;4.10;;;0.85;;
51814;SDS011;37874;53.158;6.766;2023-10-31T13:10:44;5.43;;;0.85;;
51814;SDS011;37874;53.158;6.766;2023-10-31T13:13:10;4.03;;;0.70;;
51814;SDS011;37874;53.158;6.766;2023-10-31T13:15:37;3.45;;;0.80;;
51814;SDS011;37874;53.158;6.766;2023-10-31T13:18:03;2.75;;;0.70;;
51814;SDS011;37874;53.158;6.766;2023-10-31T13:20:29;2.33;;;0.70;;
51814;SDS011;37874;53.158;6.766;2023-10-31T13:22:56;2.08;;;0.60;;
51814;SDS011;37874;53.158;6.766;2023-10-31T13:25:22;3.92;;;1.10;;
51814;SDS011;37874;53.158;6.766;2023-10-31T13:27:48;2.58;;;0.63;;
51814;SDS011;37874;53.158;6.766;2023-10-31T13:30:18;2.45;;;0.65;;
51814;SDS011;37874;53.158;6.766;2023-10-31T13:32:44;3.20;;;0.60;;
51814;SDS011;37874;53.158;6.766;2023-10-31T13:35:10;2.22;;;0.80;;
51814;SDS011;37874;53.158;6.766;2023-10-31T13:37:36;2.80;;;0.60;;
51814;SDS011;37874;53.158;6.766;2023-10-31T13:40:02;2.35;;;0.80;;
51814;SDS011;37874;53.158;6.766;2023-10-31T13:42:32;2.72;;;0.65;;
51814;SDS011;37874;53.158;6.766;2023-10-31T13:44:58;3.25;;;0.63;;
51814;SDS011;37874;53.158;6.766;2023-10-31T13:47:24;2.08;;;0.82;;
51814;SDS011;37874;53.158;6.766;2023-10-31T13:49:49;2.67;;;0.68;;
51814;SDS011;37874;53.158;6.766;2023-10-31T13:52:15;3.17;;;0.60;;
51814;SDS011;37874;53.158;6.766;2023-10-31T13:54:41;2.22;;;0.60;;
51814;SDS011;37874;53.158;6.766;2023-10-31T13:57:07;2.50;;;0.60;;
51814;SDS011;37874;53.158;6.766;2023-10-31T13:59:32;1.83;;;0.65;;
51814;SDS011;37874;53.158;6.766;2023-10-31T14:01:59;2.47;;;0.57;;
51814;SDS011;37874;53.158;6.766;2023-10-31T14:04:25;2.88;;;0.60;;
51814;SDS011;37874;53.158;6.766;2023-10-31T14:06:51;3.38;;;0.70;;
51814;SDS011;37874;53.158;6.766;2023-10-31T14:09:16;2.20;;;0.60;;
51814;SDS011;37874;53.158;6.766;2023-10-31T14:11:42;2.90;;;0.80;;
51814;SDS011;37874;53.158;6.766;2023-10-31T14:14:08;3.53;;;0.60;;
51814;SDS011;37874;53.158;6.766;2023-10-31T14:16:53;2.50;;;0.68;;
51814;SDS011;37874;53.158;6.766;2023-10-31T14:19:19;2.17;;;0.77;;
51814;SDS011;37874;53.158;6.766;2023-10-31T14:21:45;2.55;;;0.50;;
51814;SDS011;37874;53.158;6.766;2023-10-31T14:24:11;1.70;;;0.70;;
51814;SDS011;37874;53.158;6.766;2023-10-31T14:26:36;2.05;;;0.60;;
51814;SDS011;37874;53.158;6.766;2023-10-31T14:29:03;2.33;;;0.60;;
51814;SDS011;37874;53.158;6.766;2023-10-31T14:31:29;2.25;;;0.60;;
51814;SDS011;37874;53.158;6.766;2023-10-31T14:33:55;6.25;;;0.50;;
51814;SDS011;37874;53.158;6.766;2023-10-31T14:36:20;2.25;;;0.70;;
51814;SDS011;37874;53.158;6.766;2023-10-31T14:38:46;2.20;;;0.60;;
51814;SDS011;37874;53.158;6.766;2023-10-31T14:41:11;2.22;;;0.60;;
51814;SDS011;37874;53.158;6.766;2023-10-31T14:43:39;2.40;;;0.60;;
51814;SDS011;37874;53.158;6.766;2023-10-31T14:46:05;3.58;;;1.00;;
51814;SDS011;37874;53.158;6.766;2023-10-31T14:48:32;5.60;;;1.00;;